Time;durP1;ratioP1;P1;durP2;ratioP2;P2;SDS_P1;SDS_P2;PMS_P1;PMS_P2;Temp;Humidity;BMP_temperature;BMP_pressure;BME280_temperature;BME280_humidity;BME280_pressure;Samples;Min_cycle;Max_cycle;Signal;HPM_P1;HPM_P2
2022/07/02 00:00:19;;;;;;;17.52;8.00;;;;;;;12.18;55.86;100598.06;6133084;23;20017;-76
2022/07/02 00:02:50;;;;;;;16.17;8.00;;;;;;;12.14;56.05;100599.81;6134015;23;20017;-78
2022/07/02 00:05:20;;;;;;;19.27;7.60;;;;;;;12.06;55.75;100601.59;6158463;23;20017;-77
2022/07/02 00:07:47;;;;;;;24.35;8.15;;;;;;;12.02;55.66;100599.84;6158497;23;20673;-77
2022/07/02 00:10:14;;;;;;;20.42;7.53;;;;;;;12.08;55.71;100606.78;6183383;23;20025;-76
2022/07/02 00:12:40;;;;;;;18.95;7.78;;;;;;;12.12;55.81;100619.84;6184674;23;20032;-76
2022/07/02 00:15:07;;;;;;;19.70;7.22;;;;;;;12.05;56.06;100605.91;6158332;23;20017;-77
2022/07/02 00:17:33;;;;;;;20.65;8.50;;;;;;;12.11;55.72;100604.16;6185085;23;20044;-75
2022/07/02 00:20:01;;;;;;;17.45;7.50;;;;;;;12.14;55.79;100614.59;6183953;23;20359;-76
2022/07/02 00:22:30;;;;;;;14.23;6.50;;;;;;;12.08;56.41;100599.84;6183995;23;20020;-76
2022/07/02 00:24:56;;;;;;;18.88;7.82;;;;;;;12.10;56.19;100612.88;6182508;23;20016;-76
2022/07/02 00:27:23;;;;;;;13.10;6.78;;;;;;;12.14;56.36;100617.22;6182338;23;20485;-76
2022/07/02 00:29:51;;;;;;;18.70;6.45;;;;;;;12.19;56.10;100613.72;6184002;23;20024;-76
2022/07/02 00:32:18;;;;;;;11.27;6.70;;;;;;;12.31;55.86;100625.84;6157760;23;20386;-76
2022/07/02 00:34:45;;;;;;;10.93;6.47;;;;;;;12.29;55.87;100617.16;6181928;23;20101;-77
2022/07/02 00:37:13;;;;;;;14.82;6.60;;;;;;;12.41;55.69;100623.22;6183756;23;20067;-77
2022/07/02 00:39:40;;;;;;;14.40;6.03;;;;;;;12.45;55.38;100631.03;6158388;23;20456;-77
2022/07/02 00:42:09;;;;;;;16.73;6.65;;;;;;;12.47;55.55;100638.84;6182522;23;20107;-75
2022/07/02 00:44:35;;;;;;;10.25;5.93;;;;;;;12.46;55.45;100640.59;6184291;23;20044;-76
2022/07/02 00:47:09;;;;;;;19.02;6.65;;;;;;;12.47;55.52;100644.06;6184535;23;20024;-77
2022/07/02 00:49:37;;;;;;;16.05;6.15;;;;;;;12.53;55.24;100641.44;6183755;23;20023;-77
2022/07/02 00:52:04;;;;;;;14.35;6.07;;;;;;;12.56;55.15;100635.38;6182517;23;20024;-75
2022/07/02 00:54:30;;;;;;;14.43;5.60;;;;;;;12.65;55.00;100637.91;6183356;23;20024;-76
2022/07/02 00:56:57;;;;;;;13.80;5.93;;;;;;;12.63;54.78;100634.44;6182536;23;20021;-76
2022/07/02 00:59:25;;;;;;;19.50;6.38;;;;;;;12.63;55.17;100629.22;6183624;23;20021;-79
2022/07/02 01:01:52;;;;;;;12.02;6.63;;;;;;;12.62;54.71;100624.88;6182036;23;20013;-75
2022/07/02 01:04:18;;;;;;;9.80;6.03;;;;;;;12.59;54.84;100617.94;6181848;23;20021;-75
2022/07/02 01:06:45;;;;;;;11.25;6.70;;;;;;;12.65;55.18;100623.16;6183817;23;20017;-76
2022/07/02 01:12:00;;;;;;;20.65;7.13;;;;;;;12.62;55.15;100623.16;6183606;23;20469;-76
2022/07/02 01:14:27;;;;;;;17.80;6.28;;;;;;;12.52;54.91;100621.44;6183090;23;20025;-78
2022/07/02 01:16:55;;;;;;;10.80;5.75;;;;;;;12.58;55.15;100644.91;6157071;23;20036;-77
2022/07/02 01:19:23;;;;;;;23.15;7.13;;;;;;;12.57;55.23;100651.00;6182001;23;20027;-77
2022/07/02 01:22:13;;;;;;;18.58;6.70;;;;;;;12.51;55.68;100635.34;6183688;23;20013;-75
2022/07/02 01:24:39;;;;;;;15.13;6.00;;;;;;;12.59;55.65;100646.66;6184404;23;20027;-75
2022/07/02 01:27:05;;;;;;;11.40;5.68;;;;;;;12.65;55.70;100651.88;6184247;23;20028;-77
2022/07/02 01:29:31;;;;;;;12.55;5.72;;;;;;;12.78;55.85;100649.19;6186439;23;20462;-76
2022/07/02 01:31:57;;;;;;;14.15;5.68;;;;;;;12.85;55.31;100657.84;6201424;23;20024;-77
2022/07/02 01:34:24;;;;;;;15.88;5.28;;;;;;;12.81;55.50;100644.81;6204279;23;20069;-77
2022/07/02 01:36:50;;;;;;;16.25;5.80;;;;;;;12.88;55.21;100639.56;6169014;23;20028;-77
2022/07/02 01:39:23;;;;;;;12.77;5.10;;;;;;;12.97;55.23;100644.75;6164726;23;20016;-78
2022/07/02 01:41:49;;;;;;;14.02;5.60;;;;;;;12.95;55.19;100639.53;6185686;23;20016;-77
2022/07/02 01:44:16;;;;;;;17.48;5.15;;;;;;;13.01;55.07;100638.63;6134222;23;20107;-77
2022/07/02 01:46:44;;;;;;;12.10;5.10;;;;;;;13.18;55.03;100648.97;6183293;23;20071;-76
2022/07/02 01:49:11;;;;;;;11.27;5.13;;;;;;;13.23;54.95;100652.44;6183432;23;20021;-76
2022/07/02 01:51:37;;;;;;;11.75;5.13;;;;;;;13.26;54.83;100652.41;6157705;23;20017;-76
2022/07/02 01:54:04;;;;;;;10.15;4.30;;;;;;;13.34;54.88;100654.13;6182131;23;20047;-76
2022/07/02 01:56:32;;;;;;;14.52;4.63;;;;;;;13.43;54.45;100664.53;6157292;23;20028;-77
2022/07/02 01:58:58;;;;;;;8.10;5.00;;;;;;;13.38;54.70;100646.25;6157224;23;20017;-75
2022/07/02 02:01:24;;;;;;;7.05;4.38;;;;;;;13.57;54.67;100658.34;6181720;23;20017;-76
2022/07/02 02:03:50;;;;;;;10.50;4.28;;;;;;;13.60;54.85;100661.81;6184164;23;20021;-76
2022/07/02 02:06:17;;;;;;;9.80;5.15;;;;;;;13.68;54.76;100656.50;6183658;23;20493;-77
2022/07/02 02:08:43;;;;;;;13.40;5.63;;;;;;;13.80;54.72;100661.63;6185003;23;20102;-77
2022/07/02 02:11:09;;;;;;;10.07;4.63;;;;;;;13.92;54.53;100665.03;6204685;23;20012;-76
2022/07/02 02:13:36;;;;;;;7.63;4.25;;;;;;;14.04;54.27;100670.13;6206624;23;20017;-77
2022/07/02 02:16:22;;;;;;;12.82;4.55;;;;;;;14.07;54.11;100659.63;6162406;23;20455;-76
2022/07/02 02:18:48;;;;;;;10.13;4.30;;;;;;;14.27;54.02;100676.91;6157555;23;20321;-74
2022/07/02 02:21:15;;;;;;;8.65;4.43;;;;;;;14.33;53.83;100663.75;6182689;23;20024;-76
2022/07/02 02:23:42;;;;;;;7.10;4.20;;;;;;;14.44;53.43;100664.50;6156315;23;20469;-75
2022/07/02 02:26:08;;;;;;;7.65;4.70;;;;;;;14.62;53.33;100678.28;6183838;23;20038;-74
2022/07/02 02:28:34;;;;;;;11.35;4.65;;;;;;;14.73;52.92;100668.56;6132466;23;20044;-77
2022/07/02 02:31:00;;;;;;;10.05;5.05;;;;;;;14.86;52.89;100678.91;6157151;23;20108;-77
2022/07/02 02:33:26;;;;;;;8.27;4.63;;;;;;;14.97;52.58;100676.13;6132614;23;20466;-75
2022/07/02 02:35:52;;;;;;;9.77;4.88;;;;;;;15.00;52.42;100656.00;6163428;23;20017;-76
2022/07/02 02:38:19;;;;;;;8.52;4.20;;;;;;;15.13;52.08;100666.28;6196504;23;20112;-75
2022/07/02 02:40:45;;;;;;;7.88;4.60;;;;;;;15.27;51.96;100663.47;6158636;23;20028;-75
2022/07/02 02:43:11;;;;;;;12.65;4.80;;;;;;;15.24;51.73;100651.28;6184213;23;20017;-76
2022/07/02 02:45:37;;;;;;;9.10;4.50;;;;;;;15.38;51.68;100671.19;6157363;23;20048;-76
2022/07/02 02:48:03;;;;;;;11.25;4.68;;;;;;;15.45;51.81;100675.47;6133273;23;20020;-77
2022/07/02 02:50:30;;;;;;;9.00;4.40;;;;;;;15.54;51.85;100674.44;6182454;23;20399;-76
2022/07/02 02:52:56;;;;;;;11.98;4.78;;;;;;;15.64;51.58;100681.28;6182978;23;20075;-76
2022/07/02 02:55:22;;;;;;;12.95;4.70;;;;;;;15.76;51.30;100670.59;6156609;23;20021;-77
2022/07/02 02:57:48;;;;;;;7.68;4.43;;;;;;;15.91;51.16;100674.75;6180834;23;20029;-76
2022/07/02 03:00:14;;;;;;;10.48;4.80;;;;;;;16.01;50.72;100677.19;6156324;23;20066;-76
2022/07/02 03:02:40;;;;;;;11.65;5.30;;;;;;;16.12;50.86;100675.25;6156056;23;20017;-76
2022/07/02 03:05:07;;;;;;;14.00;5.13;;;;;;;16.20;50.56;100675.13;6182688;23;20021;-74
2022/07/02 03:07:33;;;;;;;11.77;4.93;;;;;;;16.34;50.45;100664.38;6180580;23;20040;-76
2022/07/02 03:09:59;;;;;;;10.55;4.47;;;;;;;16.40;50.29;100656.38;6182837;23;20025;-77
2022/07/02 03:12:26;;;;;;;15.10;4.97;;;;;;;16.56;49.71;100660.44;6183123;23;20343;-76
2022/07/02 03:14:52;;;;;;;13.05;4.80;;;;;;;16.65;49.61;100655.91;6181277;23;20111;-76
2022/07/02 03:17:18;;;;;;;9.70;4.82;;;;;;;16.76;49.36;100656.53;6181590;23;20027;-75
2022/07/02 03:19:45;;;;;;;15.07;4.82;;;;;;;16.93;49.09;100653.53;6180517;23;20017;-76
2022/07/02 03:22:11;;;;;;;12.23;4.90;;;;;;;17.14;49.00;100664.50;6182749;23;20021;-76
2022/07/02 03:24:38;;;;;;;16.13;4.82;;;;;;;16.95;48.53;100614.06;6184979;23;20028;-75
2022/07/02 03:27:04;;;;;;;11.35;4.00;;;;;;;17.36;48.34;100664.03;6186064;23;20466;-76
2022/07/02 03:29:30;;;;;;;15.13;5.20;;;;;;;17.46;48.09;100655.88;6182785;23;20017;-77
2022/07/02 03:31:56;;;;;;;9.65;4.40;;;;;;;17.62;48.00;100666.03;6180818;23;20009;-76
2022/07/02 03:34:22;;;;;;;11.18;5.00;;;;;;;17.79;47.84;100665.59;6181827;23;20048;-76
2022/07/02 03:36:48;;;;;;;14.40;4.90;;;;;;;17.95;47.46;100654.69;6133166;23;20021;-76
2022/07/02 03:39:14;;;;;;;11.43;4.80;;;;;;;18.17;47.19;100666.41;6184003;23;20017;-76
2022/07/02 03:41:40;;;;;;;13.48;4.30;;;;;;;18.30;46.92;100651.13;6158105;23;20013;-76
2022/07/02 03:44:06;;;;;;;10.63;4.53;;;;;;;18.48;46.40;100664.69;6184042;23;20097;-77
2022/07/02 03:46:32;;;;;;;11.75;4.30;;;;;;;18.63;46.03;100661.66;6158381;23;20403;-77
2022/07/02 03:48:58;;;;;;;12.38;4.38;;;;;;;18.73;45.83;100654.34;6182287;23;20021;-75
2022/07/02 03:51:24;;;;;;;8.30;4.35;;;;;;;18.92;45.59;100659.91;6183688;23;20017;-78
2022/07/02 03:53:51;;;;;;;11.32;4.88;;;;;;;19.10;45.17;100657.66;6182907;23;20020;-77
2022/07/02 03:56:17;;;;;;;9.45;3.97;;;;;;;19.32;44.80;100667.53;6184815;23;20017;-76
2022/07/02 03:58:43;;;;;;;9.77;3.90;;;;;;;19.49;44.36;100659.09;6184237;23;20025;-76
2022/07/02 04:01:10;;;;;;;9.80;4.82;;;;;;;19.63;44.11;100674.47;6184163;23;20020;-75
2022/07/02 04:03:37;;;;;;;14.30;4.65;;;;;;;19.77;43.72;100663.47;6183987;23;20088;-76
2022/07/02 04:06:03;;;;;;;11.45;5.18;;;;;;;19.91;43.53;100671.81;6184870;23;20474;-76
2022/07/02 04:08:30;;;;;;;8.48;4.60;;;;;;;20.03;43.71;100670.50;6183101;23;20020;-77
2022/07/02 04:10:56;;;;;;;14.18;5.32;;;;;;;20.16;43.80;100674.47;6184043;23;20016;-77
2022/07/02 04:13:22;;;;;;;8.55;4.43;;;;;;;20.24;43.80;100674.19;6184335;23;20661;-78
2022/07/02 04:15:48;;;;;;;8.60;4.47;;;;;;;20.35;43.38;100671.19;6185476;23;20403;-76
2022/07/02 04:18:15;;;;;;;14.10;5.10;;;;;;;20.52;42.83;100678.50;6199172;23;20076;-76
2022/07/02 04:20:40;;;;;;;11.80;4.40;;;;;;;20.66;42.29;100674.47;6202479;23;20044;-75
2022/07/02 04:23:07;;;;;;;12.15;3.95;;;;;;;20.82;41.95;100669.50;6137563;23;20017;-77
2022/07/02 04:25:33;;;;;;;13.40;4.43;;;;;;;20.97;41.24;100655.69;6186486;23;20020;-77
2022/07/02 04:27:58;;;;;;;10.88;5.07;;;;;;;21.18;40.68;100669.88;6158698;23;20068;-80
2022/07/02 04:30:24;;;;;;;10.40;3.85;;;;;;;21.29;40.44;100664.16;6183546;23;20025;-76
2022/07/02 04:32:50;;;;;;;7.28;3.55;;;;;;;21.46;39.76;100662.63;6182908;23;20027;-77
2022/07/02 04:35:17;;;;;;;5.63;3.55;;;;;;;21.61;39.14;100664.66;6182221;23;20041;-77
2022/07/02 04:37:43;;;;;;;8.95;3.60;;;;;;;21.79;38.65;100655.09;6182342;23;20025;-78
2022/07/02 04:40:09;;;;;;;6.18;3.28;;;;;;;21.93;38.27;100650.97;6157089;23;20016;-76
2022/07/02 04:42:36;;;;;;;6.53;3.03;;;;;;;22.05;37.50;100649.59;6182595;23;20343;-76
2022/07/02 04:45:02;;;;;;;4.22;2.97;;;;;;;22.17;36.95;100651.72;6181989;23;20358;-78
2022/07/02 04:47:30;;;;;;;5.90;3.22;;;;;;;22.31;36.50;100650.22;6181918;23;20358;-76
2022/07/02 04:49:56;;;;;;;5.28;3.20;;;;;;;22.36;36.06;100648.25;6157147;23;20067;-75
2022/07/02 04:52:22;;;;;;;6.65;3.17;;;;;;;22.52;35.89;100657.25;6182033;23;20021;-75
2022/07/02 04:54:48;;;;;;;5.05;2.95;;;;;;;22.64;35.36;100660.25;6157844;23;20017;-76
2022/07/02 04:57:14;;;;;;;5.28;2.85;;;;;;;22.71;34.74;100648.44;6183718;23;20021;-75
2022/07/02 04:59:42;;;;;;;3.78;3.05;;;;;;;22.85;34.42;100643.34;6182379;23;20016;-76
2022/07/02 05:02:08;;;;;;;5.70;3.03;;;;;;;22.93;34.00;100643.00;6181383;23;20595;-76
2022/07/02 05:04:34;;;;;;;9.13;3.10;;;;;;;22.86;33.91;100629.16;6183713;23;20470;-77
2022/07/02 05:07:00;;;;;;;8.13;3.97;;;;;;;22.99;33.42;100639.19;6182055;23;20017;-77
2022/07/02 05:09:26;;;;;;;8.45;3.75;;;;;;;23.04;32.84;100623.94;6183105;23;20021;-77
2022/07/02 05:11:52;;;;;;;9.25;2.85;;;;;;;23.27;32.59;100632.59;6181506;23;20397;-77
2022/07/02 05:14:18;;;;;;;8.75;5.38;;;;;;;23.41;32.18;100632.78;6181576;23;20079;-77
2022/07/02 05:16:44;;;;;;;6.35;3.25;;;;;;;23.56;32.00;100628.50;6183173;23;20451;-76
2022/07/02 05:19:10;;;;;;;11.20;7.85;;;;;;;23.61;31.80;100626.44;6182681;23;20028;-76
2022/07/02 05:21:37;;;;;;;14.52;5.65;;;;;;;23.82;31.28;100644.03;6158139;23;20035;-74
2022/07/02 05:24:05;;;;;;;13.02;7.90;;;;;;;23.91;31.16;100630.28;6182715;23;20017;-76
2022/07/02 05:26:31;;;;;;;27.98;17.67;;;;;;;24.13;30.93;100621.22;6185175;23;20024;-76
2022/07/02 05:28:57;;;;;;;29.40;18.70;;;;;;;24.29;30.86;100616.81;6187361;23;20024;-74
2022/07/02 05:31:23;;;;;;;9.27;5.38;;;;;;;24.39;30.77;100627.81;6184214;23;20163;-77
2022/07/02 05:33:50;;;;;;;21.98;15.52;;;;;;;24.46;30.13;100623.88;6158473;23;20017;-77
2022/07/02 05:36:16;;;;;;;9.13;5.93;;;;;;;24.48;29.79;100622.00;6160656;23;20017;-76
2022/07/02 05:38:42;;;;;;;10.70;8.43;;;;;;;24.59;29.81;100628.53;6159565;23;20017;-76
2022/07/02 05:41:08;;;;;;;9.38;5.32;;;;;;;24.66;29.83;100620.13;6182584;23;20028;-76
2022/07/02 05:43:34;;;;;;;6.15;3.75;;;;;;;24.72;29.28;100631.41;6191710;23;20017;-77
2022/07/02 05:46:01;;;;;;;5.43;3.15;;;;;;;24.69;29.20;100620.88;6195701;23;20016;-76
2022/07/02 05:48:27;;;;;;;6.35;3.45;;;;;;;24.74;29.31;100622.38;6198057;23;20087;-76
2022/07/02 05:50:53;;;;;;;4.43;3.15;;;;;;;24.95;29.04;100608.81;6198388;23;20021;-76
2022/07/02 05:53:19;;;;;;;4.38;2.97;;;;;;;25.36;28.66;100608.25;6186716;23;20100;-77
2022/07/02 05:55:46;;;;;;;10.57;4.68;;;;;;;26.36;28.15;100605.03;6187616;23;20103;-77
2022/07/02 05:58:12;;;;;;;9.45;4.63;;;;;;;28.40;26.83;100610.28;6181425;23;20020;-77
2022/07/02 06:00:39;;;;;;;5.40;3.78;;;;;;;30.68;24.58;100599.47;6181422;23;20017;-78
2022/07/02 06:03:04;;;;;;;9.30;3.45;;;;;;;32.87;23.15;100588.00;6181669;23;20148;-77
2022/07/02 06:08:18;;;;;;;4.50;2.90;;;;;;;36.16;19.28;100577.69;6181329;23;20103;-76
2022/07/02 06:10:44;;;;;;;4.93;3.30;;;;;;;37.52;17.62;100578.47;6181000;23;20488;-78
2022/07/02 06:13:10;;;;;;;5.97;3.35;;;;;;;38.71;16.65;100572.28;6182909;23;20354;-78
2022/07/02 06:15:36;;;;;;;7.30;5.10;;;;;;;39.39;15.47;100563.44;6107219;23;20021;-77
2022/07/02 06:18:02;;;;;;;5.28;4.65;;;;;;;40.33;14.55;100577.53;6181209;23;20521;-79
2022/07/02 06:20:29;;;;;;;6.30;3.17;;;;;;;41.23;14.06;100577.22;6181484;23;20023;-78
2022/07/02 06:22:55;;;;;;;6.60;3.63;;;;;;;41.75;13.00;100571.53;6156039;23;20515;-77
2022/07/02 06:25:27;;;;;;;7.22;6.25;;;;;;;42.36;12.28;100559.00;6156637;23;20533;-77
2022/07/02 06:27:56;;;;;;;5.05;3.45;;;;;;;42.76;12.46;100578.25;6183260;23;20048;-77
2022/07/02 06:30:23;;;;;;;5.68;4.53;;;;;;;43.03;11.95;100568.22;6181458;23;20481;-79
2022/07/02 06:32:50;;;;;;;5.10;4.10;;;;;;;43.79;11.03;100568.78;6185671;23;20402;-77
2022/07/02 06:35:16;;;;;;;4.60;3.72;;;;;;;44.16;10.74;100567.41;6183802;23;20019;-75
2022/07/02 06:37:42;;;;;;;3.67;3.38;;;;;;;44.97;10.53;100563.13;6184251;23;20017;-76
2022/07/02 06:40:09;;;;;;;5.13;3.28;;;;;;;45.61;9.93;100562.13;6184312;23;20017;-76
2022/07/02 06:42:35;;;;;;;6.95;3.55;;;;;;;45.70;9.41;100557.19;6159314;23;20024;-78
2022/07/02 06:45:01;;;;;;;6.13;4.72;;;;;;;46.11;9.12;100552.91;6159232;23;20017;-76
2022/07/02 06:47:30;;;;;;;27.13;24.40;;;;;;;46.41;9.36;100545.72;6186192;23;20017;-78
2022/07/02 06:49:58;;;;;;;15.75;14.23;;;;;;;46.99;8.57;100549.69;6159789;23;20017;-77
2022/07/02 06:52:30;;;;;;;6.15;4.85;;;;;;;47.34;8.39;100545.28;6184293;23;20100;-76
2022/07/02 06:54:57;;;;;;;5.13;4.63;;;;;;;47.55;8.28;100552.09;6183922;23;20096;-76
2022/07/02 06:57:24;;;;;;;5.18;4.55;;;;;;;47.97;8.16;100542.81;6181179;23;20017;-77
2022/07/02 06:59:50;;;;;;;4.05;3.13;;;;;;;47.81;8.00;100555.41;6182333;23;20019;-78
2022/07/02 07:02:17;;;;;;;4.28;3.20;;;;;;;48.05;7.66;100556.22;6159741;23;20028;-77
2022/07/02 07:04:43;;;;;;;4.57;3.75;;;;;;;48.41;7.48;100550.56;6185298;23;20017;-77
2022/07/02 07:07:10;;;;;;;3.95;3.40;;;;;;;48.65;7.06;100553.19;6200556;23;20068;-77
2022/07/02 07:09:37;;;;;;;4.25;3.85;;;;;;;49.10;6.94;100548.69;6178319;23;20052;-79
2022/07/02 07:12:05;;;;;;;4.15;3.75;;;;;;;49.32;6.74;100540.44;6163432;23;20025;-77
2022/07/02 07:14:32;;;;;;;5.72;3.35;;;;;;;49.52;6.85;100553.72;6184846;23;20458;-78
2022/07/02 07:16:58;;;;;;;4.18;3.40;;;;;;;49.78;6.20;100543.00;6182721;23;20073;-76
2022/07/02 07:19:24;;;;;;;5.95;3.38;;;;;;;49.79;6.19;100544.69;6183869;23;20024;-78
2022/07/02 07:21:50;;;;;;;3.90;3.50;;;;;;;49.63;6.20;100543.63;6182576;23;20104;-78
2022/07/02 07:24:17;;;;;;;4.97;3.65;;;;;;;50.22;6.02;100549.59;6182572;23;20021;-76
2022/07/02 07:26:50;;;;;;;3.75;3.42;;;;;;;50.56;6.11;100541.06;6182636;23;20067;-76
2022/07/02 07:29:16;;;;;;;19.70;18.00;;;;;;;50.67;5.52;100531.75;6182222;23;20525;-75
2022/07/02 07:31:42;;;;;;;47.20;42.78;;;;;;;51.18;5.34;100522.97;6183162;23;20028;-77
2022/07/02 07:34:09;;;;;;;11.75;10.65;;;;;;;51.55;5.89;100520.38;6157179;23;20458;-78
2022/07/02 07:36:37;;;;;;;5.93;4.72;;;;;;;51.87;5.11;100513.88;6133568;23;20032;-76
2022/07/02 07:39:07;;;;;;;6.00;4.40;;;;;;;52.16;5.45;100525.31;6182590;23;20039;-79
2022/07/02 07:41:34;;;;;;;6.93;4.35;;;;;;;52.15;4.80;100518.09;6184614;23;20021;-79
2022/07/02 07:44:01;;;;;;;6.75;3.83;;;;;;;51.17;5.65;100518.53;6182955;23;20092;-77
2022/07/02 07:46:30;;;;;;;4.68;3.75;;;;;;;50.79;4.91;100523.25;6182618;23;20021;-77
2022/07/02 07:48:58;;;;;;;;;;;;;;;50.85;5.58;100526.91;6183136;23;20307;-78
2022/07/02 07:51:28;;;;;;;4.50;3.80;;;;;;;51.50;5.17;100521.22;6182668;23;19962;-79
2022/07/02 07:53:54;;;;;;;4.28;3.50;;;;;;;51.27;4.94;100511.41;6184366;23;20028;-76
2022/07/02 07:56:20;;;;;;;5.35;3.63;;;;;;;51.23;4.88;100513.88;6184632;23;20047;-77
2022/07/02 07:58:53;;;;;;;5.80;3.60;;;;;;;50.90;5.15;100513.13;6182054;23;20096;-79
2022/07/02 08:01:26;;;;;;;3.85;3.40;;;;;;;51.47;5.37;100508.72;6183843;23;20059;-78
2022/07/02 08:03:59;;;;;;;6.95;3.42;;;;;;;51.58;4.62;100498.56;6159605;23;20645;-78
2022/07/02 08:06:30;;;;;;;4.55;3.80;;;;;;;52.05;4.85;100502.28;6160485;23;20072;-77
2022/07/02 08:09:07;;;;;;;5.72;3.75;;;;;;;52.63;4.35;100492.06;6158574;23;20027;-79
2022/07/02 08:11:37;;;;;;;4.00;3.60;;;;;;;52.14;4.08;100505.34;6182319;23;20017;-79
2022/07/02 08:14:04;;;;;;;4.05;3.75;;;;;;;51.95;4.30;100507.81;6182002;23;20021;-77
2022/07/02 08:16:33;;;;;;;7.75;4.15;;;;;;;52.41;4.43;100505.13;6182751;23;20095;-78
2022/07/02 08:18:59;;;;;;;5.25;4.30;;;;;;;52.09;4.47;100506.16;6184046;23;20024;-76
2022/07/02 08:21:30;;;;;;;5.78;3.70;;;;;;;52.08;4.59;100503.69;6181723;23;20017;-78
2022/07/02 08:24:00;;;;;;;3.97;3.58;;;;;;;52.63;4.30;100495.69;6157632;23;20013;-78
2022/07/02 08:26:29;;;;;;;6.47;4.10;;;;;;;52.31;3.87;100498.75;6132751;23;20111;-78
2022/07/02 08:28:55;;;;;;;10.88;9.68;;;;;;;53.23;4.14;100500.53;6184047;23;20021;-78
2022/07/02 08:31:33;;;;;;;5.80;5.22;;;;;;;53.52;3.84;100491.53;6182256;23;20024;-76
2022/07/02 08:33:59;;;;;;;6.25;3.63;;;;;;;53.42;4.28;100492.41;6132918;23;20506;-80
2022/07/02 08:36:33;;;;;;;4.25;3.80;;;;;;;53.16;3.95;100475.00;6182647;23;20036;-76
2022/07/02 08:39:06;;;;;;;4.15;3.75;;;;;;;52.63;4.25;100462.38;6183492;23;20451;-76
2022/07/02 08:41:33;;;;;;;4.57;3.88;;;;;;;52.90;4.57;100477.03;6184537;23;20108;-79
2022/07/02 08:44:01;;;;;;;5.07;3.80;;;;;;;52.18;4.39;100470.38;6183054;23;20021;-77
2022/07/02 08:46:29;;;;;;;5.78;3.67;;;;;;;51.88;4.60;100472.00;6181117;23;20466;-76
2022/07/02 08:48:59;;;;;;;4.00;3.70;;;;;;;52.21;4.01;100466.22;6159446;23;20366;-76
2022/07/02 08:51:28;;;;;;;5.13;3.78;;;;;;;50.87;4.53;100469.34;6184664;23;20021;-77
2022/07/02 08:54:06;;;;;;;4.85;4.22;;;;;;;50.52;5.00;100466.06;6183812;23;20016;-77
2022/07/02 08:56:32;;;;;;;4.60;3.63;;;;;;;51.40;4.37;100460.22;6186513;23;20068;-77
2022/07/02 08:59:02;;;;;;;4.07;3.72;;;;;;;51.83;4.43;100461.72;6164959;23;20017;-76
2022/07/02 09:01:31;;;;;;;5.53;4.13;;;;;;;51.65;4.41;100462.25;6184346;23;20077;-76
2022/07/02 09:03:57;;;;;;;11.02;5.68;;;;;;;52.28;4.21;100450.16;6183995;23;20409;-78
2022/07/02 09:06:30;;;;;;;9.32;4.80;;;;;;;52.44;3.86;100447.38;6182293;23;20024;-76
2022/07/02 09:08:58;;;;;;;6.05;4.18;;;;;;;52.82;3.86;100457.03;6184073;23;20068;-77
2022/07/02 09:11:24;;;;;;;5.07;3.85;;;;;;;52.82;4.14;100442.34;6181941;23;20024;-77
2022/07/02 09:13:53;;;;;;;8.80;4.25;;;;;;;52.40;4.13;100450.72;6182072;23;20044;-78
2022/07/02 09:16:19;;;;;;;8.27;5.15;;;;;;;52.08;4.62;100445.44;6182021;23;20396;-77
2022/07/02 09:18:45;;;;;;;8.52;5.25;;;;;;;51.90;4.14;100449.56;6182943;23;20020;-77
2022/07/02 09:21:11;;;;;;;12.43;11.25;;;;;;;51.75;4.86;100445.66;6184980;23;20013;-76
2022/07/02 09:23:47;;;;;;;7.97;3.92;;;;;;;51.93;4.15;100443.50;6190568;23;20028;-75
2022/07/02 09:26:23;;;;;;;4.13;3.67;;;;;;;51.67;4.50;100419.28;6204301;23;20017;-75
2022/07/02 09:28:59;;;;;;;14.23;12.77;;;;;;;51.42;4.50;100447.75;6197467;23;20021;-76
2022/07/02 09:31:27;;;;;;;20.80;12.32;;;;;;;51.30;5.02;100436.09;6192127;23;20017;-76
2022/07/02 09:33:53;;;;;;;11.32;5.82;;;;;;;51.56;4.57;100433.41;6183596;23;20336;-78
2022/07/02 09:36:21;;;;;;;8.02;5.30;;;;;;;51.52;4.27;100414.53;6184444;23;20355;-77
2022/07/02 09:38:49;;;;;;;18.25;12.27;;;;;;;51.19;4.33;100416.63;6157732;23;20505;-76
2022/07/02 09:41:21;;;;;;;18.90;13.17;;;;;;;51.56;4.78;100416.78;6185801;23;20019;-75
2022/07/02 09:43:59;;;;;;;10.25;6.00;;;;;;;51.41;4.41;100412.03;6187094;23;20103;-76
2022/07/02 09:46:26;;;;;;;6.72;4.05;;;;;;;51.41;4.92;100412.84;6185077;23;20013;-77
2022/07/02 09:48:53;;;;;;;13.10;8.98;;;;;;;51.00;4.85;100409.91;6184355;23;20040;-76
2022/07/02 09:51:20;;;;;;;4.28;3.38;;;;;;;51.15;4.74;100403.59;6183707;23;20024;-75
2022/07/02 09:53:55;;;;;;;36.90;32.00;;;;;;;51.48;4.27;100396.78;6186053;23;20020;-77
2022/07/02 09:56:23;;;;;;;35.72;29.77;;;;;;;51.53;4.92;100398.72;6202794;23;20043;-75
2022/07/02 09:58:50;;;;;;;14.57;12.73;;;;;;;51.26;4.36;100394.22;6199617;23;20012;-77
2022/07/02 10:01:21;;;;;;;25.58;19.52;;;;;;;51.04;4.75;100397.19;6187255;23;20064;-77
2022/07/02 10:03:50;;;;;;;5.88;3.65;;;;;;;49.92;4.58;100383.09;6187407;23;20016;-77
2022/07/02 10:06:17;;;;;;;13.00;8.05;;;;;;;49.65;4.92;100378.41;6110307;23;20087;-77
2022/07/02 10:08:43;;;;;;;6.45;4.22;;;;;;;49.61;5.36;100368.13;6184133;23;20032;-77
2022/07/02 10:11:11;;;;;;;8.20;4.50;;;;;;;49.62;4.85;100367.03;6181721;23;20013;-78
2022/07/02 10:13:38;;;;;;;7.95;4.60;;;;;;;49.49;4.86;100374.63;6183535;23;20096;-76
2022/07/02 10:16:22;;;;;;;6.97;3.63;;;;;;;48.64;5.16;100364.69;6183138;23;20118;-77
2022/07/02 10:18:49;;;;;;;5.30;3.28;;;;;;;48.34;5.40;100359.56;6158716;23;20040;-77
2022/07/02 10:21:16;;;;;;;3.60;2.88;;;;;;;48.36;5.38;100358.22;6184718;23;20017;-76
2022/07/02 10:23:48;;;;;;;5.50;3.10;;;;;;;48.56;5.42;100354.06;6159818;23;20017;-78
2022/07/02 10:26:14;;;;;;;3.85;2.95;;;;;;;47.85;5.52;100347.13;6185762;23;20031;-77
2022/07/02 10:28:40;;;;;;;4.32;2.88;;;;;;;46.77;5.77;100346.63;6159156;23;20020;-76
2022/07/02 10:31:11;;;;;;;15.20;13.73;;;;;;;44.43;6.47;100342.44;6186285;23;20067;-77
2022/07/02 10:33:53;;;;;;;8.77;7.15;;;;;;;42.40;7.19;100345.19;6158814;23;20016;-75
2022/07/02 10:36:23;;;;;;;2.83;2.63;;;;;;;40.62;7.76;100333.13;6184648;23;20040;-77
2022/07/02 10:39:00;;;;;;;6.82;4.45;;;;;;;39.04;8.44;100331.03;6183600;23;20017;-76
2022/07/02 10:41:32;;;;;;;14.68;12.68;;;;;;;38.23;9.33;100330.56;6159500;23;20017;-78
2022/07/02 10:44:09;;;;;;;11.48;9.02;;;;;;;37.38;9.95;100305.16;6161798;23;20035;-78
2022/07/02 10:47:29;;;;;;;2.70;2.45;;;;;;;36.38;10.16;100293.69;6181600;23;20044;-75
2022/07/02 10:50:09;;;;;;;6.03;4.43;;;;;;;35.26;10.72;100281.31;6114587;23;20024;-76
2022/07/02 10:52:50;;;;;;;6.03;3.92;;;;;;;34.43;10.49;100246.78;6183525;23;20021;-77
2022/07/02 10:55:42;;;;;;;12.93;11.10;;;;;;;34.00;10.95;100278.97;6157981;23;20112;-76
2022/07/02 10:58:41;;;;;;;4.18;3.00;;;;;;;33.24;11.19;100271.03;6161857;23;20025;-76
2022/07/02 11:01:22;;;;;;;10.57;9.07;;;;;;;33.15;11.85;100318.59;6133238;23;20020;-76
2022/07/02 11:04:01;;;;;;;4.30;2.70;;;;;;;32.32;12.43;100256.44;6181352;23;20021;-77
2022/07/02 11:06:30;;;;;;;7.13;5.78;;;;;;;32.23;12.89;100307.41;6155753;23;20510;-77
2022/07/02 11:09:07;;;;;;;8.73;4.32;;;;;;;31.69;12.69;100293.47;6156809;23;20103;-76
2022/07/02 11:11:37;;;;;;;3.28;2.35;;;;;;;31.47;13.75;100321.47;6132257;23;20021;-76
2022/07/02 11:14:16;;;;;;;4.45;2.80;;;;;;;30.84;13.86;100288.38;6133225;23;20462;-77
2022/07/02 11:16:52;;;;;;;5.55;3.13;;;;;;;30.60;14.33;100318.19;6182401;23;20068;-76
2022/07/02 11:19:26;;;;;;;7.85;4.30;;;;;;;30.47;14.93;100335.31;6180685;23;20111;-78
2022/07/02 11:22:01;;;;;;;5.70;3.88;;;;;;;30.27;15.14;100318.22;6182653;23;20100;-77
2022/07/02 11:24:29;;;;;;;7.35;3.60;;;;;;;30.05;15.16;100325.38;6180283;23;20455;-78
2022/07/02 11:26:56;;;;;;;4.05;2.85;;;;;;;29.84;15.59;100327.97;6155926;23;20076;-77
2022/07/02 11:29:22;;;;;;;5.47;2.70;;;;;;;29.73;15.49;100325.31;6180582;23;20021;-77
2022/07/02 11:31:53;;;;;;;5.20;2.38;;;;;;;29.42;15.82;100317.94;6182010;23;20082;-77
2022/07/02 11:34:24;;;;;;;3.28;2.40;;;;;;;29.19;15.77;100327.78;6181303;23;20045;-76